Terminal Aerodrome Forecast
Issued by NWS

Home | Current Version | Previous Version | Text Only | Print | Product List | Glossary On
Versions: 1 2 3 4 5 6 7 8 9 10 11 12
130
FTUS42 TJSJ 131749
TAFKPK
TAF
TKPK 131749Z 1318/1418 09011KT P6SM VCSH SCT018 SCT022 SCT035
     FM141300 09011KT P6SM FEW018 SCT030=

USA.gov is the U.S. government's official web portal to all federal, state and local government web resources and services.